Indian River, MI

8:28 PM EDT on June 29, 2015 (GMT -0400)
Wildcat North | | Change Station
CLOSE
Current Station
Personal Weather Station
Location: Cheboygan, MI
Elevation: 640 ft
Nearby Weather Stations

Elev 640 ft 45.58 °N, 84.46 °W | Updated 22 seconds ago

Clear
Clear
70.2 °F
Feels Like 77 °F
N
0.0
Wind Variable Wind from ENE
Gusts 2.0 mph

Today
High -- | Low -- °F
--% Chance of Precip.
Yesterday
High -- | Low -- °F
Precip. -- in
5:52 AM 9:30 PM
Waxing Gibbous, 95% visible
Pressure 29.78 in
Visibility 10.0 miles
Clouds Clear
Heat Index 77 °F
Dew Point 53 °F
Humidity 55%
Rainfall 0.00 in
Snow Depth Not available.
UV 0.0 out of 12
Pollen 4.60 out of 12
Air Quality Not available.
Flu Activity Sporadic
METAR KPLN 292354Z AUTO 31007KT 10SM CLR 24/11 A2979 RMK AO2 SLP084 T02440106 10278 20244 53004

More Conditions Fewer Conditions

Pressure 29.78 in
Visibility 10.0 miles
Clouds Clear
Heat Index 77 °F
Dew Point 53 °F
Humidity 55%
Rainfall 0.00 in
Snow Depth Not available.
UV 0.0 out of 12
Pollen 4.60 out of 12
Air Quality Not available.
Flu Activity Sporadic
METAR KPLN 292354Z AUTO 31007KT 10SM CLR 24/11 A2979 RMK AO2 SLP084 T02440106 10278 20244 53004

More Conditions Fewer Conditions

Nowcast | as of 8:00 PM EDT on June 29, 2015

At 9 PM...mostly clear. Temperature 67. Light winds. At 11 PM...partly cloudy. Temperature 62. Light winds. At 1 am...partly cloudy. Temperature 60. Light winds. At 3 am...partly cloudy. Temperature 57. Light winds.

×

10-Day Weather Forecast

×

Almanac

Astronomy

Jun. 29, 2015 Rise Set
Actual Time
Civil Twilight
Nautical Twilight
Astronomical Twilight
Moon
Length of Visible Light
Length of Day
Tomorrow will be .
, % of the Moon is Illuminated

Today's Extremes

State Highs State Lows

Community

WunderPhotos

Upload Photos

1,833,899 photos uploaded!

WunderBlogs® & News

Nearby

Air Quality

  Air Quality AQ Index Pollutant
Not available.

Snow Depth

Station Depth Elevation

Earthquake Activity

City Distance Mag. Time & Date
Minimum magnitude displayed is 2.5.

Coastal Water Temperatures

Place Temperature

Stations

Nearby Weather Stations

Station Location Temp. Windchill Dew Point Humidity Wind Precip. Elev Updated Type